Bellmunt (Osona)





Hora UTC 06:25
Temperatura 13.3 ºC
Humedad 79.0 %
Presión 1009.2 hPa
Pluja 0.0 mm
Velocidad viento 0.0 km/h
Dirección viento SE

Datos diarios 2024-05-30



Hora UTC (invierno +1h; verano +2h)
Temperatura (ºC) Humedad (%) Presión (hPa) Velocidad viento (km/h) Precipitación (mm)
Hora UTC Aire Humedad Presión Vel. Dir. Vel. Max Dir. Intent. máx 5 min.
00:05 13.6 83.0 1012.1 8.0 SSW 8.0 0.0
00:10 13.6 83.0 1012.1 6.4 SSW 9.7 0.0
00:15 13.7 83.0 1012.1 8.0 SW 9.7 0.0
00:20 13.8 82.0 1012.0 11.3 SW 11.3 0.0
00:25 13.9 81.0 1011.9 8.0 SW 11.3 0.0
00:30 13.9 81.0 1011.9 9.7 SSW 11.3 0.0
00:35 13.8 80.0 1011.9 9.7 WSW 12.9 0.0
00:40 14.0 77.0 1011.8 11.3 WSW 12.9 0.0
00:45 14.1 80.0 1011.9 12.9 WSW 12.9 0.0
00:50 14.1 80.0 1011.7 12.9 WSW 14.5 0.0
00:55 14.2 73.0 1011.7 12.9 SW 14.5 0.0
01:00 14.2 76.0 1011.7 9.7 S 14.5 0.0
01:05 13.9 80.0 1011.5 8.0 SSW 14.5 0.0
01:10 13.6 83.0 1011.5 6.4 SSW 11.3 0.0
01:15 13.4 84.0 1011.4 8.0 SW 9.7 0.0
01:20 13.4 84.0 1011.3 8.0 SW 8.0 0.0
01:25 13.4 84.0 1011.3 8.0 SW 8.0 0.0
01:30 13.6 82.0 1011.3 11.3 WSW 11.3 0.0
01:35 13.6 82.0 1011.2 9.7 W 11.3 0.0
01:40 13.7 81.0 1011.2 8.0 WSW 11.3 0.0
01:45 13.7 80.0 1011.1 11.3 WSW 11.3 0.0
01:50 13.7 82.0 1011.0 11.3 WSW 11.3 0.0
01:55 13.7 80.0 1010.9 11.3 W 12.9 0.0
02:00 13.7 79.0 1010.8 11.3 W 12.9 0.0
02:05 13.7 79.0 1010.9 9.7 W 11.3 0.0
02:10 13.7 79.0 1010.8 9.7 W 11.3 0.0
02:15 13.7 78.0 1010.8 6.4 W 11.3 0.0
02:20 13.7 79.0 1010.7 8.0 WSW 11.3 0.0
02:25 13.9 76.0 1010.6 8.0 WSW 11.3 0.0
02:30 14.0 74.0 1010.6 8.0 SW 11.3 0.0
02:35 14.0 75.0 1010.6 8.0 WSW 11.3 0.0
02:40 13.9 75.0 1010.5 6.4 WSW 11.3 0.0
02:45 13.9 74.0 1010.4 8.0 WSW 14.5 0.0
02:50 13.8 76.0 1010.2 6.4 W 14.5 0.0
02:55 13.9 75.0 1010.2 8.0 WSW 11.3 0.0
03:00 13.8 76.0 1010.1 4.8 SW 11.3 0.0
03:05 13.8 76.0 1010.1 8.0 WSW 8.0 0.0
03:10 13.8 74.0 1010.1 8.0 WSW 11.3 0.0
03:15 13.8 73.0 1010.1 9.7 SW 11.3 0.0
03:20 13.8 74.0 1009.9 6.4 W 11.3 0.0
03:25 13.7 75.0 1009.9 4.8 WSW 11.3 0.0
03:30 13.7 75.0 1009.8 6.4 WSW 8.0 0.0
03:35 13.6 76.0 1009.7 9.7 W 9.7 0.0
03:40 13.6 77.0 1009.7 4.8 WNW 8.0 0.0
03:45 13.5 77.0 1009.6 4.8 W 8.0 0.0
03:50 13.4 77.0 1009.5 4.8 WNW 6.4 0.0
03:55 13.4 77.0 1009.5 4.8 WNW 6.4 0.0
04:00 13.4 77.0 1009.5 4.8 WNW 4.8 0.0
04:05 13.4 77.0 1009.5 3.2 WNW 4.8 0.0
04:10 13.4 76.0 1009.4 0.0 WNW 4.8 0.0
04:15 13.4 75.0 1009.5 0.0 WNW 3.2 0.0
04:20 13.4 77.0 1009.4 0.0 WNW 0.0 0.0
04:25 13.4 74.0 1009.4 0.0 SSW 0.0 0.0
04:30 13.6 72.0 1009.3 0.0 SSW 0.0 0.0
04:35 13.7 72.0 1009.4 4.8 SW 6.4 0.0
04:40 13.8 73.0 1009.4 3.2 W 6.4 0.0
04:45 13.7 75.0 1009.4 3.2 WNW 4.8 0.0
04:50 13.6 75.0 1009.4 3.2 WNW 4.8 0.0
04:55 13.6 75.0 1009.3 3.2 WNW 4.8 0.0
05:00 13.6 76.0 1009.3 3.2 WNW 4.8 0.0
05:05 13.6 76.0 1009.3 1.6 WNW 4.8 0.0
05:10 13.6 76.0 1009.3 1.6 WNW 4.8 0.0
05:15 13.6 76.0 1009.2 0.0 WNW 3.2 0.0
05:20 13.4 76.0 1009.2 0.0 WNW 0.0 0.0
05:25 13.5 76.0 1009.1 0.0 WNW 0.0 0.0
05:30 13.5 76.0 1009.2 0.0 WNW 0.0 0.0
05:35 13.4 76.0 1009.2 0.0 NNW 0.0 0.0
05:40 13.5 76.0 1009.1 0.0 NNW 0.0 0.0
05:45 13.5 76.0 1009.2 0.0 NW 0.0 0.0
05:50 13.4 75.0 1009.1 0.0 NW 0.0 0.0
05:55 13.6 75.0 1009.1 0.0 NW 0.0 0.0
06:00 13.6 75.0 1009.1 0.0 NW 0.0 0.0
06:05 13.7 75.0 1009.1 0.0 NW 0.0 0.0
06:10 13.7 75.0 1009.1 0.0 NW 0.0 0.0
06:15 13.7 77.0 1009.1 0.0 NW 0.0 0.0
06:20 13.6 78.0 1009.2 0.0 S 1.6 0.0
06:25 13.3 79.0 1009.2 0.0 SE 1.6 0.0
Máxima 14.3 84.0 1012.1 12.9 SW 14.5 0.0
Mínima 13.3 72.0 1009.1
Total 0.0